sensor_id;sensor_type;location;lat;lon;timestamp;temperature;humidity
44121;DHT22;29783;52.504;13.478;2022-08-27T00:01:56;19.20;97.40
44121;DHT22;29783;52.504;13.478;2022-08-27T00:04:22;19.20;97.40
44121;DHT22;29783;52.504;13.478;2022-08-27T00:06:48;19.10;97.40
44121;DHT22;29783;52.504;13.478;2022-08-27T00:09:14;19.20;97.40
44121;DHT22;29783;52.504;13.478;2022-08-27T00:11:39;19.10;97.40
44121;DHT22;29783;52.504;13.478;2022-08-27T00:14:05;19.10;97.40
44121;DHT22;29783;52.504;13.478;2022-08-27T00:16:31;19.10;97.40
44121;DHT22;29783;52.504;13.478;2022-08-27T00:18:57;19.10;97.50
44121;DHT22;29783;52.504;13.478;2022-08-27T00:21:23;19.10;97.50
44121;DHT22;29783;52.504;13.478;2022-08-27T00:23:48;19.10;97.50
44121;DHT22;29783;52.504;13.478;2022-08-27T00:26:15;19.20;97.50
44121;DHT22;29783;52.504;13.478;2022-08-27T00:28:41;19.10;97.50
44121;DHT22;29783;52.504;13.478;2022-08-27T00:31:07;19.20;97.50
44121;DHT22;29783;52.504;13.478;2022-08-27T00:33:34;19.20;97.50
44121;DHT22;29783;52.504;13.478;2022-08-27T00:36:01;19.20;97.50
44121;DHT22;29783;52.504;13.478;2022-08-27T00:38:28;19.20;97.50
44121;DHT22;29783;52.504;13.478;2022-08-27T00:40:54;19.20;97.50
44121;DHT22;29783;52.504;13.478;2022-08-27T00:43:24;19.20;97.40
44121;DHT22;29783;52.504;13.478;2022-08-27T00:45:52;19.20;97.40
44121;DHT22;29783;52.504;13.478;2022-08-27T00:48:21;19.20;97.50
44121;DHT22;29783;52.504;13.478;2022-08-27T00:50:53;19.20;97.50
44121;DHT22;29783;52.504;13.478;2022-08-27T00:53:25;19.20;97.50
44121;DHT22;29783;52.504;13.478;2022-08-27T00:56:02;19.20;97.50
44121;DHT22;29783;52.504;13.478;2022-08-27T00:58:32;19.20;97.60
44121;DHT22;29783;52.504;13.478;2022-08-27T01:01:00;19.20;97.60
44121;DHT22;29783;52.504;13.478;2022-08-27T01:03:27;19.20;97.60
44121;DHT22;29783;52.504;13.478;2022-08-27T01:05:54;19.20;97.60
44121;DHT22;29783;52.504;13.478;2022-08-27T01:08:24;19.20;97.70
44121;DHT22;29783;52.504;13.478;2022-08-27T01:10:51;19.20;97.70
44121;DHT22;29783;52.504;13.478;2022-08-27T01:13:21;19.30;97.80
44121;DHT22;29783;52.504;13.478;2022-08-27T01:15:48;19.40;97.80
44121;DHT22;29783;52.504;13.478;2022-08-27T01:18:14;19.40;97.80
44121;DHT22;29783;52.504;13.478;2022-08-27T01:21:30;19.40;97.80
44121;DHT22;29783;52.504;13.478;2022-08-27T01:24:02;19.40;97.80
44121;DHT22;29783;52.504;13.478;2022-08-27T01:26:29;19.40;97.80
44121;DHT22;29783;52.504;13.478;2022-08-27T01:28:56;19.50;97.80
44121;DHT22;29783;52.504;13.478;2022-08-27T01:31:22;19.50;97.70
44121;DHT22;29783;52.504;13.478;2022-08-27T01:33:57;19.50;97.70
44121;DHT22;29783;52.504;13.478;2022-08-27T01:36:24;19.50;97.80
44121;DHT22;29783;52.504;13.478;2022-08-27T01:38:50;19.60;97.70
44121;DHT22;29783;52.504;13.478;2022-08-27T01:41:17;19.60;97.70
44121;DHT22;29783;52.504;13.478;2022-08-27T01:43:43;19.60;97.70
44121;DHT22;29783;52.504;13.478;2022-08-27T01:46:09;19.60;97.70
44121;DHT22;29783;52.504;13.478;2022-08-27T01:48:34;19.70;97.70
44121;DHT22;29783;52.504;13.478;2022-08-27T01:51:01;19.70;97.60
44121;DHT22;29783;52.504;13.478;2022-08-27T01:53:31;19.70;97.60
44121;DHT22;29783;52.504;13.478;2022-08-27T01:55:59;19.60;97.60
44121;DHT22;29783;52.504;13.478;2022-08-27T01:58:31;19.70;97.50
44121;DHT22;29783;52.504;13.478;2022-08-27T02:01:06;19.70;97.50
44121;DHT22;29783;52.504;13.478;2022-08-27T02:03:38;19.70;97.40
44121;DHT22;29783;52.504;13.478;2022-08-27T02:06:11;19.70;97.40
44121;DHT22;29783;52.504;13.478;2022-08-27T02:08:40;19.70;97.30
44121;DHT22;29783;52.504;13.478;2022-08-27T02:11:10;19.70;97.30
44121;DHT22;29783;52.504;13.478;2022-08-27T02:13:41;19.60;97.20
44121;DHT22;29783;52.504;13.478;2022-08-27T02:16:12;19.60;97.20
44121;DHT22;29783;52.504;13.478;2022-08-27T02:18:42;19.70;97.10
44121;DHT22;29783;52.504;13.478;2022-08-27T02:21:08;19.70;97.10
44121;DHT22;29783;52.504;13.478;2022-08-27T02:23:34;19.70;97.20
44121;DHT22;29783;52.504;13.478;2022-08-27T02:26:01;19.70;97.10
44121;DHT22;29783;52.504;13.478;2022-08-27T02:28:27;19.70;96.90
44121;DHT22;29783;52.504;13.478;2022-08-27T02:30:52;19.70;96.90
44121;DHT22;29783;52.504;13.478;2022-08-27T02:33:18;19.70;96.90
44121;DHT22;29783;52.504;13.478;2022-08-27T02:35:44;19.70;97.00
44121;DHT22;29783;52.504;13.478;2022-08-27T02:38:12;19.70;97.00
44121;DHT22;29783;52.504;13.478;2022-08-27T02:40:38;19.70;97.00
44121;DHT22;29783;52.504;13.478;2022-08-27T02:43:04;19.80;97.20
44121;DHT22;29783;52.504;13.478;2022-08-27T02:45:31;19.80;97.00
44121;DHT22;29783;52.504;13.478;2022-08-27T02:47:57;19.80;97.00
44121;DHT22;29783;52.504;13.478;2022-08-27T02:50:22;19.80;97.00
44121;DHT22;29783;52.504;13.478;2022-08-27T02:52:48;19.80;97.10
44121;DHT22;29783;52.504;13.478;2022-08-27T02:55:15;19.80;97.00
44121;DHT22;29783;52.504;13.478;2022-08-27T02:57:41;19.90;97.00
44121;DHT22;29783;52.504;13.478;2022-08-27T03:00:10;19.80;96.90
44121;DHT22;29783;52.504;13.478;2022-08-27T03:02:36;19.90;97.00
44121;DHT22;29783;52.504;13.478;2022-08-27T03:05:04;19.80;96.90
44121;DHT22;29783;52.504;13.478;2022-08-27T03:07:30;19.80;97.00
44121;DHT22;29783;52.504;13.478;2022-08-27T03:09:55;19.80;97.00
44121;DHT22;29783;52.504;13.478;2022-08-27T03:12:21;19.80;97.10
44121;DHT22;29783;52.504;13.478;2022-08-27T03:14:48;19.90;97.10
44121;DHT22;29783;52.504;13.478;2022-08-27T03:17:14;19.90;97.10
44121;DHT22;29783;52.504;13.478;2022-08-27T03:19:58;19.90;97.20
44121;DHT22;29783;52.504;13.478;2022-08-27T03:22:25;20.00;97.20
44121;DHT22;29783;52.504;13.478;2022-08-27T03:24:51;20.00;97.10
44121;DHT22;29783;52.504;13.478;2022-08-27T03:27:19;20.00;97.10
44121;DHT22;29783;52.504;13.478;2022-08-27T03:29:45;19.90;97.10
44121;DHT22;29783;52.504;13.478;2022-08-27T03:32:12;19.90;97.10
44121;DHT22;29783;52.504;13.478;2022-08-27T03:34:38;19.90;97.20
44121;DHT22;29783;52.504;13.478;2022-08-27T03:37:04;19.90;97.20
44121;DHT22;29783;52.504;13.478;2022-08-27T03:39:29;19.90;97.20
44121;DHT22;29783;52.504;13.478;2022-08-27T03:41:55;19.90;97.20
44121;DHT22;29783;52.504;13.478;2022-08-27T03:44:22;19.90;97.20
44121;DHT22;29783;52.504;13.478;2022-08-27T03:46:49;19.90;97.30
44121;DHT22;29783;52.504;13.478;2022-08-27T03:49:17;20.00;97.40
44121;DHT22;29783;52.504;13.478;2022-08-27T03:51:43;19.90;97.30
44121;DHT22;29783;52.504;13.478;2022-08-27T03:54:11;20.00;97.40
44121;DHT22;29783;52.504;13.478;2022-08-27T03:56:37;20.00;97.30
44121;DHT22;29783;52.504;13.478;2022-08-27T03:59:05;20.00;97.30
44121;DHT22;29783;52.504;13.478;2022-08-27T04:01:32;20.00;97.20
44121;DHT22;29783;52.504;13.478;2022-08-27T04:03:58;20.00;97.10
44121;DHT22;29783;52.504;13.478;2022-08-27T04:06:24;20.00;97.10
44121;DHT22;29783;52.504;13.478;2022-08-27T04:08:49;20.00;97.20
44121;DHT22;29783;52.504;13.478;2022-08-27T04:11:15;20.00;97.10
44121;DHT22;29783;52.504;13.478;2022-08-27T04:13:42;20.00;97.10
44121;DHT22;29783;52.504;13.478;2022-08-27T04:16:09;19.90;97.20
44121;DHT22;29783;52.504;13.478;2022-08-27T04:18:35;19.90;97.10
44121;DHT22;29783;52.504;13.478;2022-08-27T04:21:07;19.90;97.20
44121;DHT22;29783;52.504;13.478;2022-08-27T04:23:33;19.80;97.20
44121;DHT22;29783;52.504;13.478;2022-08-27T04:26:02;19.80;97.20
44121;DHT22;29783;52.504;13.478;2022-08-27T04:28:29;19.70;97.30
44121;DHT22;29783;52.504;13.478;2022-08-27T04:30:54;19.80;97.30
44121;DHT22;29783;52.504;13.478;2022-08-27T04:33:20;19.70;97.30
44121;DHT22;29783;52.504;13.478;2022-08-27T04:35:46;19.70;97.40
44121;DHT22;29783;52.504;13.478;2022-08-27T04:38:11;19.70;97.50
44121;DHT22;29783;52.504;13.478;2022-08-27T04:40:37;19.70;97.60
44121;DHT22;29783;52.504;13.478;2022-08-27T04:43:21;19.70;97.60
44121;DHT22;29783;52.504;13.478;2022-08-27T04:45:48;19.70;97.70
44121;DHT22;29783;52.504;13.478;2022-08-27T04:48:16;19.70;97.70
44121;DHT22;29783;52.504;13.478;2022-08-27T04:50:44;19.70;97.80
44121;DHT22;29783;52.504;13.478;2022-08-27T04:53:12;19.70;97.70
44121;DHT22;29783;52.504;13.478;2022-08-27T04:55:42;19.70;97.70
44121;DHT22;29783;52.504;13.478;2022-08-27T04:58:09;19.70;97.60
44121;DHT22;29783;52.504;13.478;2022-08-27T05:00:43;19.70;97.70
44121;DHT22;29783;52.504;13.478;2022-08-27T05:03:09;19.70;97.70
44121;DHT22;29783;52.504;13.478;2022-08-27T05:05:35;19.70;97.60
44121;DHT22;29783;52.504;13.478;2022-08-27T05:08:02;19.70;97.60
44121;DHT22;29783;52.504;13.478;2022-08-27T05:10:27;19.70;97.70
44121;DHT22;29783;52.504;13.478;2022-08-27T05:12:53;19.70;97.80
44121;DHT22;29783;52.504;13.478;2022-08-27T05:15:18;19.70;97.90
44121;DHT22;29783;52.504;13.478;2022-08-27T05:21:07;19.70;97.80
44121;DHT22;29783;52.504;13.478;2022-08-27T05:23:33;19.70;97.70
44121;DHT22;29783;52.504;13.478;2022-08-27T05:25:59;19.80;97.80
44121;DHT22;29783;52.504;13.478;2022-08-27T05:28:27;19.80;97.70
44121;DHT22;29783;52.504;13.478;2022-08-27T05:31:01;19.90;97.50
44121;DHT22;29783;52.504;13.478;2022-08-27T05:33:27;19.80;97.40
44121;DHT22;29783;52.504;13.478;2022-08-27T05:35:55;19.70;97.30
44121;DHT22;29783;52.504;13.478;2022-08-27T05:38:24;19.70;97.40
44121;DHT22;29783;52.504;13.478;2022-08-27T05:41:11;19.70;97.40
44121;DHT22;29783;52.504;13.478;2022-08-27T05:43:38;19.70;97.50
44121;DHT22;29783;52.504;13.478;2022-08-27T05:46:08;19.80;97.60
44121;DHT22;29783;52.504;13.478;2022-08-27T05:48:35;19.70;97.40
44121;DHT22;29783;52.504;13.478;2022-08-27T05:51:09;19.90;97.50
44121;DHT22;29783;52.504;13.478;2022-08-27T05:53:36;19.90;97.30
44121;DHT22;29783;52.504;13.478;2022-08-27T05:56:01;19.80;97.20
44121;DHT22;29783;52.504;13.478;2022-08-27T05:58:33;20.00;97.30
44121;DHT22;29783;52.504;13.478;2022-08-27T06:01:19;20.00;97.00
44121;DHT22;29783;52.504;13.478;2022-08-27T06:04:10;19.90;96.80
44121;DHT22;29783;52.504;13.478;2022-08-27T06:06:39;19.80;97.00
44121;DHT22;29783;52.504;13.478;2022-08-27T06:09:06;19.80;96.90
44121;DHT22;29783;52.504;13.478;2022-08-27T06:11:32;19.80;97.00
44121;DHT22;29783;52.504;13.478;2022-08-27T06:13:58;19.80;96.90
44121;DHT22;29783;52.504;13.478;2022-08-27T06:16:23;19.90;97.00
44121;DHT22;29783;52.504;13.478;2022-08-27T06:18:49;19.80;96.80
44121;DHT22;29783;52.504;13.478;2022-08-27T06:21:17;19.90;96.80
44121;DHT22;29783;52.504;13.478;2022-08-27T06:23:44;19.90;96.60
44121;DHT22;29783;52.504;13.478;2022-08-27T06:26:13;20.00;96.50
44121;DHT22;29783;52.504;13.478;2022-08-27T06:28:39;19.90;96.20
44121;DHT22;29783;52.504;13.478;2022-08-27T06:31:14;20.00;96.20
44121;DHT22;29783;52.504;13.478;2022-08-27T06:33:41;20.20;96.10
44121;DHT22;29783;52.504;13.478;2022-08-27T06:36:10;20.20;95.60
44121;DHT22;29783;52.504;13.478;2022-08-27T06:38:37;20.20;95.60
44121;DHT22;29783;52.504;13.478;2022-08-27T06:41:04;20.20;95.30
44121;DHT22;29783;52.504;13.478;2022-08-27T06:43:30;20.20;95.50
44121;DHT22;29783;52.504;13.478;2022-08-27T06:45:56;20.20;95.60
44121;DHT22;29783;52.504;13.478;2022-08-27T06:48:22;20.20;95.50
44121;DHT22;29783;52.504;13.478;2022-08-27T06:50:50;20.20;95.50
44121;DHT22;29783;52.504;13.478;2022-08-27T06:53:16;20.30;95.40
44121;DHT22;29783;52.504;13.478;2022-08-27T06:55:47;20.40;95.30
44121;DHT22;29783;52.504;13.478;2022-08-27T06:58:14;20.50;95.00
44121;DHT22;29783;52.504;13.478;2022-08-27T07:00:41;20.60;94.20
44121;DHT22;29783;52.504;13.478;2022-08-27T07:03:07;20.60;94.10
44121;DHT22;29783;52.504;13.478;2022-08-27T07:05:36;20.50;94.40
44121;DHT22;29783;52.504;13.478;2022-08-27T07:08:03;20.60;94.40
44121;DHT22;29783;52.504;13.478;2022-08-27T07:10:29;20.70;93.80
44121;DHT22;29783;52.504;13.478;2022-08-27T07:12:54;20.70;93.50
44121;DHT22;29783;52.504;13.478;2022-08-27T07:15:20;20.70;93.80
44121;DHT22;29783;52.504;13.478;2022-08-27T07:17:46;20.60;93.40
44121;DHT22;29783;52.504;13.478;2022-08-27T07:20:13;20.50;93.70
44121;DHT22;29783;52.504;13.478;2022-08-27T07:22:40;20.60;93.60
44121;DHT22;29783;52.504;13.478;2022-08-27T07:25:08;20.60;93.80
44121;DHT22;29783;52.504;13.478;2022-08-27T07:27:36;20.70;93.50
44121;DHT22;29783;52.504;13.478;2022-08-27T07:30:03;20.70;93.10
44121;DHT22;29783;52.504;13.478;2022-08-27T07:32:29;20.80;92.50
44121;DHT22;29783;52.504;13.478;2022-08-27T07:34:55;20.90;92.60
44121;DHT22;29783;52.504;13.478;2022-08-27T07:37:20;20.90;92.30
44121;DHT22;29783;52.504;13.478;2022-08-27T07:39:47;20.90;92.40
44121;DHT22;29783;52.504;13.478;2022-08-27T07:42:12;20.90;92.40
44121;DHT22;29783;52.504;13.478;2022-08-27T07:44:57;20.90;92.40
44121;DHT22;29783;52.504;13.478;2022-08-27T07:47:22;20.90;92.50
44121;DHT22;29783;52.504;13.478;2022-08-27T07:49:48;20.90;92.40
44121;DHT22;29783;52.504;13.478;2022-08-27T07:52:14;21.00;92.20
44121;DHT22;29783;52.504;13.478;2022-08-27T07:54:41;21.00;92.30
44121;DHT22;29783;52.504;13.478;2022-08-27T07:57:07;21.00;91.90
44121;DHT22;29783;52.504;13.478;2022-08-27T07:59:34;21.00;92.20
44121;DHT22;29783;52.504;13.478;2022-08-27T08:01:59;21.10;91.80
44121;DHT22;29783;52.504;13.478;2022-08-27T08:04:25;21.10;91.90
44121;DHT22;29783;52.504;13.478;2022-08-27T08:06:52;21.20;91.40
44121;DHT22;29783;52.504;13.478;2022-08-27T08:09:18;21.20;91.10
44121;DHT22;29783;52.504;13.478;2022-08-27T08:11:44;21.20;90.90
44121;DHT22;29783;52.504;13.478;2022-08-27T08:14:10;21.10;91.30
44121;DHT22;29783;52.504;13.478;2022-08-27T08:16:36;21.00;91.60
44121;DHT22;29783;52.504;13.478;2022-08-27T08:19:01;21.00;92.10
44121;DHT22;29783;52.504;13.478;2022-08-27T08:21:27;20.90;91.80
44121;DHT22;29783;52.504;13.478;2022-08-27T08:23:53;20.80;91.90
44121;DHT22;29783;52.504;13.478;2022-08-27T08:26:18;20.70;92.20
44121;DHT22;29783;52.504;13.478;2022-08-27T08:28:44;20.70;92.10
44121;DHT22;29783;52.504;13.478;2022-08-27T08:31:10;20.70;91.90
44121;DHT22;29783;52.504;13.478;2022-08-27T08:33:36;20.70;92.10
44121;DHT22;29783;52.504;13.478;2022-08-27T08:36:09;20.70;92.00
44121;DHT22;29783;52.504;13.478;2022-08-27T08:38:36;20.80;91.90
44121;DHT22;29783;52.504;13.478;2022-08-27T08:41:03;21.10;91.50
44121;DHT22;29783;52.504;13.478;2022-08-27T08:43:37;21.10;90.80
44121;DHT22;29783;52.504;13.478;2022-08-27T08:46:18;21.10;91.00
44121;DHT22;29783;52.504;13.478;2022-08-27T08:48:49;21.20;90.50
44121;DHT22;29783;52.504;13.478;2022-08-27T08:51:24;21.10;90.40
44121;DHT22;29783;52.504;13.478;2022-08-27T08:54:07;21.00;90.60
44121;DHT22;29783;52.504;13.478;2022-08-27T08:56:42;21.30;90.20
44121;DHT22;29783;52.504;13.478;2022-08-27T08:59:24;21.40;89.40
44121;DHT22;29783;52.504;13.478;2022-08-27T09:01:52;21.50;89.20
44121;DHT22;29783;52.504;13.478;2022-08-27T09:04:19;21.50;88.80
44121;DHT22;29783;52.504;13.478;2022-08-27T09:07:06;21.60;89.10
44121;DHT22;29783;52.504;13.478;2022-08-27T09:12:20;21.70;88.70
44121;DHT22;29783;52.504;13.478;2022-08-27T09:14:57;21.50;89.30
44121;DHT22;29783;52.504;13.478;2022-08-27T09:17:23;21.50;89.90
44121;DHT22;29783;52.504;13.478;2022-08-27T09:19:49;21.50;90.20
44121;DHT22;29783;52.504;13.478;2022-08-27T09:22:42;21.50;89.90
44121;DHT22;29783;52.504;13.478;2022-08-27T09:25:17;21.50;89.80
44121;DHT22;29783;52.504;13.478;2022-08-27T09:27:48;21.60;89.40
44121;DHT22;29783;52.504;13.478;2022-08-27T09:30:21;21.80;88.80
44121;DHT22;29783;52.504;13.478;2022-08-27T09:33:00;21.90;88.20
44121;DHT22;29783;52.504;13.478;2022-08-27T09:35:27;21.90;88.50
44121;DHT22;29783;52.504;13.478;2022-08-27T09:38:01;22.00;88.10
44121;DHT22;29783;52.504;13.478;2022-08-27T09:40:40;22.20;87.80
44121;DHT22;29783;52.504;13.478;2022-08-27T09:45:56;22.10;87.70
44121;DHT22;29783;52.504;13.478;2022-08-27T09:48:31;22.20;86.80
44121;DHT22;29783;52.504;13.478;2022-08-27T09:51:07;22.30;86.50
44121;DHT22;29783;52.504;13.478;2022-08-27T09:53:49;22.20;86.50
44121;DHT22;29783;52.504;13.478;2022-08-27T09:56:29;22.40;86.20
44121;DHT22;29783;52.504;13.478;2022-08-27T09:58:59;22.60;85.90
44121;DHT22;29783;52.504;13.478;2022-08-27T10:01:28;22.80;85.20
44121;DHT22;29783;52.504;13.478;2022-08-27T10:04:06;22.80;85.50
44121;DHT22;29783;52.504;13.478;2022-08-27T10:06:32;23.00;83.80
44121;DHT22;29783;52.504;13.478;2022-08-27T10:09:12;23.10;83.90
44121;DHT22;29783;52.504;13.478;2022-08-27T10:11:47;23.10;84.00
44121;DHT22;29783;52.504;13.478;2022-08-27T10:14:20;23.00;83.50
44121;DHT22;29783;52.504;13.478;2022-08-27T10:19:54;22.90;84.70
44121;DHT22;29783;52.504;13.478;2022-08-27T10:22:49;22.90;84.70
44121;DHT22;29783;52.504;13.478;2022-08-27T10:25:40;22.80;85.00
44121;DHT22;29783;52.504;13.478;2022-08-27T10:33:41;22.50;85.20
44121;DHT22;29783;52.504;13.478;2022-08-27T10:41:42;22.80;85.20
44121;DHT22;29783;52.504;13.478;2022-08-27T10:44:25;22.70;84.70
44121;DHT22;29783;52.504;13.478;2022-08-27T10:49:59;22.80;85.00
44121;DHT22;29783;52.504;13.478;2022-08-27T10:52:40;23.00;84.50
44121;DHT22;29783;52.504;13.478;2022-08-27T10:55:29;23.10;84.10
44121;DHT22;29783;52.504;13.478;2022-08-27T10:58:08;23.20;84.20
44121;DHT22;29783;52.504;13.478;2022-08-27T11:00:44;23.30;83.60
44121;DHT22;29783;52.504;13.478;2022-08-27T11:03:32;23.30;82.90
44121;DHT22;29783;52.504;13.478;2022-08-27T11:06:02;23.40;82.50
44121;DHT22;29783;52.504;13.478;2022-08-27T11:08:38;23.30;82.10
44121;DHT22;29783;52.504;13.478;2022-08-27T11:11:13;23.10;83.10
44121;DHT22;29783;52.504;13.478;2022-08-27T11:13:48;23.10;83.40
44121;DHT22;29783;52.504;13.478;2022-08-27T11:16:44;23.10;83.80
44121;DHT22;29783;52.504;13.478;2022-08-27T11:19:26;23.00;83.80
44121;DHT22;29783;52.504;13.478;2022-08-27T11:25:30;23.30;83.20
44121;DHT22;29783;52.504;13.478;2022-08-27T11:27:58;23.40;82.50
44121;DHT22;29783;52.504;13.478;2022-08-27T11:43:50;24.40;79.00
44121;DHT22;29783;52.504;13.478;2022-08-27T11:46:25;24.50;78.40
44121;DHT22;29783;52.504;13.478;2022-08-27T11:49:01;24.90;77.60
44121;DHT22;29783;52.504;13.478;2022-08-27T11:51:36;25.60;75.30
44121;DHT22;29783;52.504;13.478;2022-08-27T11:54:05;25.90;74.00
44121;DHT22;29783;52.504;13.478;2022-08-27T11:56:40;26.40;71.80
44121;DHT22;29783;52.504;13.478;2022-08-27T12:01:44;25.90;72.30
44121;DHT22;29783;52.504;13.478;2022-08-27T12:04:35;25.70;73.70
44121;DHT22;29783;52.504;13.478;2022-08-27T12:07:05;26.00;71.90
44121;DHT22;29783;52.504;13.478;2022-08-27T12:16:13;26.70;69.80
44121;DHT22;29783;52.504;13.478;2022-08-27T12:22:18;26.60;69.80
44121;DHT22;29783;52.504;13.478;2022-08-27T12:24:54;26.20;70.60
44121;DHT22;29783;52.504;13.478;2022-08-27T12:32:44;26.10;71.90
44121;DHT22;29783;52.504;13.478;2022-08-27T12:35:31;26.10;71.90
44121;DHT22;29783;52.504;13.478;2022-08-27T12:38:11;26.50;70.60
44121;DHT22;29783;52.504;13.478;2022-08-27T12:40:55;27.10;68.50
44121;DHT22;29783;52.504;13.478;2022-08-27T12:43:27;27.60;66.20
44121;DHT22;29783;52.504;13.478;2022-08-27T12:48:41;29.10;61.90
44121;DHT22;29783;52.504;13.478;2022-08-27T12:51:30;29.20;61.60
44121;DHT22;29783;52.504;13.478;2022-08-27T12:54:40;29.10;61.60
44121;DHT22;29783;52.504;13.478;2022-08-27T12:57:22;28.50;63.10
44121;DHT22;29783;52.504;13.478;2022-08-27T13:00:10;28.10;64.10
44121;DHT22;29783;52.504;13.478;2022-08-27T13:05:44;27.60;66.20
44121;DHT22;29783;52.504;13.478;2022-08-27T13:08:19;27.80;65.20
44121;DHT22;29783;52.504;13.478;2022-08-27T13:10:45;27.90;65.70
44121;DHT22;29783;52.504;13.478;2022-08-27T13:13:16;28.00;65.30
44121;DHT22;29783;52.504;13.478;2022-08-27T13:15:45;27.90;64.70
44121;DHT22;29783;52.504;13.478;2022-08-27T13:18:11;27.90;64.80
44121;DHT22;29783;52.504;13.478;2022-08-27T13:20:38;28.00;65.00
44121;DHT22;29783;52.504;13.478;2022-08-27T13:23:13;28.00;64.30
44121;DHT22;29783;52.504;13.478;2022-08-27T13:25:39;28.20;63.40
44121;DHT22;29783;52.504;13.478;2022-08-27T13:28:17;28.20;63.20
44121;DHT22;29783;52.504;13.478;2022-08-27T13:30:46;27.40;66.00
44121;DHT22;29783;52.504;13.478;2022-08-27T13:33:24;26.70;68.90
44121;DHT22;29783;52.504;13.478;2022-08-27T13:35:52;26.50;70.10
44121;DHT22;29783;52.504;13.478;2022-08-27T13:38:20;27.10;69.10
44121;DHT22;29783;52.504;13.478;2022-08-27T13:43:41;29.30;60.80
44121;DHT22;29783;52.504;13.478;2022-08-27T13:46:26;30.60;56.60
44121;DHT22;29783;52.504;13.478;2022-08-27T13:48:56;32.50;52.40
44121;DHT22;29783;52.504;13.478;2022-08-27T13:51:25;33.00;49.90
44121;DHT22;29783;52.504;13.478;2022-08-27T13:53:52;32.30;51.30
44121;DHT22;29783;52.504;13.478;2022-08-27T13:56:41;33.10;49.70
44121;DHT22;29783;52.504;13.478;2022-08-27T14:01:36;31.50;52.70
44121;DHT22;29783;52.504;13.478;2022-08-27T14:04:05;31.30;54.00
44121;DHT22;29783;52.504;13.478;2022-08-27T14:06:45;31.60;53.20
44121;DHT22;29783;52.504;13.478;2022-08-27T14:09:28;31.70;52.80
44121;DHT22;29783;52.504;13.478;2022-08-27T14:12:03;31.40;54.50
44121;DHT22;29783;52.504;13.478;2022-08-27T14:14:36;31.80;53.20
44121;DHT22;29783;52.504;13.478;2022-08-27T14:17:03;31.20;54.10
44121;DHT22;29783;52.504;13.478;2022-08-27T14:19:32;30.10;56.50
44121;DHT22;29783;52.504;13.478;2022-08-27T14:21:58;29.40;57.10
44121;DHT22;29783;52.504;13.478;2022-08-27T14:24:25;28.80;59.00
44121;DHT22;29783;52.504;13.478;2022-08-27T14:26:53;28.40;60.40
44121;DHT22;29783;52.504;13.478;2022-08-27T14:29:19;28.20;61.20
44121;DHT22;29783;52.504;13.478;2022-08-27T14:31:45;28.40;61.20
44121;DHT22;29783;52.504;13.478;2022-08-27T14:34:12;29.40;58.40
44121;DHT22;29783;52.504;13.478;2022-08-27T14:36:40;30.50;55.30
44121;DHT22;29783;52.504;13.478;2022-08-27T14:39:07;30.70;54.10
44121;DHT22;29783;52.504;13.478;2022-08-27T14:41:34;30.20;54.70
44121;DHT22;29783;52.504;13.478;2022-08-27T14:44:00;29.10;58.00
44121;DHT22;29783;52.504;13.478;2022-08-27T14:46:28;28.30;60.20
44121;DHT22;29783;52.504;13.478;2022-08-27T14:48:57;28.20;61.50
44121;DHT22;29783;52.504;13.478;2022-08-27T14:51:26;27.70;63.20
44121;DHT22;29783;52.504;13.478;2022-08-27T14:53:52;27.20;65.10
44121;DHT22;29783;52.504;13.478;2022-08-27T14:56:19;27.10;64.80
44121;DHT22;29783;52.504;13.478;2022-08-27T14:58:46;27.10;64.30
44121;DHT22;29783;52.504;13.478;2022-08-27T15:01:12;26.60;65.40
44121;DHT22;29783;52.504;13.478;2022-08-27T15:03:45;26.30;66.40
44121;DHT22;29783;52.504;13.478;2022-08-27T15:06:15;26.40;66.50
44121;DHT22;29783;52.504;13.478;2022-08-27T15:08:42;25.80;68.70
44121;DHT22;29783;52.504;13.478;2022-08-27T15:11:23;25.60;69.90
44121;DHT22;29783;52.504;13.478;2022-08-27T15:13:51;25.30;70.80
44121;DHT22;29783;52.504;13.478;2022-08-27T15:16:34;25.20;70.60
44121;DHT22;29783;52.504;13.478;2022-08-27T15:19:01;25.20;71.20
44121;DHT22;29783;52.504;13.478;2022-08-27T15:21:28;25.10;71.90
44121;DHT22;29783;52.504;13.478;2022-08-27T15:23:58;25.10;72.30
44121;DHT22;29783;52.504;13.478;2022-08-27T15:26:24;24.90;72.90
44121;DHT22;29783;52.504;13.478;2022-08-27T15:28:49;24.80;72.90
44121;DHT22;29783;52.504;13.478;2022-08-27T15:31:15;24.70;73.70
44121;DHT22;29783;52.504;13.478;2022-08-27T15:33:42;24.60;74.40
44121;DHT22;29783;52.504;13.478;2022-08-27T15:36:10;24.50;74.80
44121;DHT22;29783;52.504;13.478;2022-08-27T15:38:35;24.40;74.80
44121;DHT22;29783;52.504;13.478;2022-08-27T15:41:02;24.30;75.20
44121;DHT22;29783;52.504;13.478;2022-08-27T15:43:27;24.10;76.40
44121;DHT22;29783;52.504;13.478;2022-08-27T15:45:53;24.10;76.70
44121;DHT22;29783;52.504;13.478;2022-08-27T15:48:19;24.00;77.30
44121;DHT22;29783;52.504;13.478;2022-08-27T15:50:45;23.90;77.70
44121;DHT22;29783;52.504;13.478;2022-08-27T15:53:11;23.90;78.00
44121;DHT22;29783;52.504;13.478;2022-08-27T15:55:40;23.70;78.50
44121;DHT22;29783;52.504;13.478;2022-08-27T15:58:06;23.60;79.10
44121;DHT22;29783;52.504;13.478;2022-08-27T16:00:34;23.60;79.20
44121;DHT22;29783;52.504;13.478;2022-08-27T16:03:02;23.50;79.40
44121;DHT22;29783;52.504;13.478;2022-08-27T16:05:32;23.50;79.50
44121;DHT22;29783;52.504;13.478;2022-08-27T16:07:58;23.20;80.20
44121;DHT22;29783;52.504;13.478;2022-08-27T16:10:24;23.10;80.60
44121;DHT22;29783;52.504;13.478;2022-08-27T16:12:51;23.10;80.90
44121;DHT22;29783;52.504;13.478;2022-08-27T16:15:16;23.00;81.20
44121;DHT22;29783;52.504;13.478;2022-08-27T16:17:43;23.00;81.60
44121;DHT22;29783;52.504;13.478;2022-08-27T16:20:11;22.90;81.80
44121;DHT22;29783;52.504;13.478;2022-08-27T16:22:37;22.80;82.10
44121;DHT22;29783;52.504;13.478;2022-08-27T16:25:05;22.70;82.60
44121;DHT22;29783;52.504;13.478;2022-08-27T16:27:31;22.70;82.70
44121;DHT22;29783;52.504;13.478;2022-08-27T16:29:57;22.70;82.60
44121;DHT22;29783;52.504;13.478;2022-08-27T16:32:24;22.60;82.60
44121;DHT22;29783;52.504;13.478;2022-08-27T16:34:52;22.60;82.70
44121;DHT22;29783;52.504;13.478;2022-08-27T16:37:17;22.50;82.90
44121;DHT22;29783;52.504;13.478;2022-08-27T16:39:43;22.50;83.10
44121;DHT22;29783;52.504;13.478;2022-08-27T16:42:09;22.40;83.20
44121;DHT22;29783;52.504;13.478;2022-08-27T16:44:35;22.30;83.60